North Platte, Nebraska
Current Conditions -  °F | °C
As of 10:53 AM on Thursday 27 Nov 2014 (Local Time) from KLBF Reporting Station
Clear Clear  
Wind Chill: 25°   Ceiling: Unl
Heat Index: 33°   Visibility: 10mi
Dew Point: 20°   Wind: 10mph
Humidity: 59%   Direction: 200°SSW
Pressure: 30.23"   Gusts: NA
Location:  41.14°N, 100.76°W
Report Text: KLBF 271653Z AUTO 20009KT 10SM CLR 01/M07 A3023 RMK AO2 SLP266 T00061067 $
Loading
Personal Weather Stations






























Interactive Weather Map New forecast layout! Learn more

10-Day Weather Forecast

Advertisements
Track Severe Weather on mobile